createdAt,value
2023-04-27T00:00:56.672Z,101184.72
2023-04-27T00:03:27.040Z,101182.91
2023-04-27T00:05:57.335Z,101182.78
2023-04-27T00:08:27.433Z,101183.47
2023-04-27T00:10:57.521Z,101181.09
2023-04-27T00:13:30.375Z,101183.63
2023-04-27T00:16:03.451Z,101186.41
2023-04-27T00:18:33.852Z,101177.78
2023-04-27T00:21:04.073Z,101171.91
2023-04-27T00:23:34.083Z,101176.38
2023-04-27T00:26:04.308Z,101175.69
2023-04-27T00:28:36.955Z,101173.75
2023-04-27T00:31:07.578Z,101166.09
2023-04-27T00:33:37.727Z,101171.66
2023-04-27T00:36:08.607Z,101171.94
2023-04-27T00:38:38.684Z,101175.28
2023-04-27T00:41:10.737Z,101183.09
2023-04-27T00:43:48.625Z,101182.94
2023-04-27T00:46:20.260Z,101186.41
2023-04-27T00:48:51.247Z,101178.91
2023-04-27T00:51:21.525Z,101177.09
2023-04-27T00:53:55.562Z,101181.13
2023-04-27T00:56:25.982Z,101185.72
2023-04-27T00:58:58.958Z,101184.75
2023-04-27T01:01:29.897Z,101192.00
2023-04-27T01:04:00.178Z,101189.22
2023-04-27T01:06:32.049Z,101191.03
2023-04-27T01:09:02.097Z,101190.19
2023-04-27T01:11:32.244Z,101194.78
2023-04-27T01:14:07.492Z,101197.44
2023-04-27T01:16:38.157Z,101192.41
2023-04-27T01:19:08.325Z,101189.50
2023-04-27T01:21:38.455Z,101194.91
2023-04-27T01:24:12.777Z,101186.69
2023-04-27T01:26:42.763Z,101193.53
2023-04-27T01:29:13.991Z,101195.59
2023-04-27T01:31:44.820Z,101196.03
2023-04-27T01:34:14.965Z,101202.44
2023-04-27T01:36:44.987Z,101206.06
2023-04-27T01:39:17.874Z,101202.03
2023-04-27T01:41:47.903Z,101200.78
2023-04-27T01:44:18.220Z,101206.44
2023-04-27T01:46:48.436Z,101213.69
2023-04-27T01:49:18.681Z,101206.31
2023-04-27T01:51:48.886Z,101212.31
2023-04-27T01:54:22.373Z,101210.63
2023-04-27T01:56:52.699Z,101218.69
2023-04-27T01:59:22.842Z,101224.53
2023-04-27T02:01:52.949Z,101212.00
2023-04-27T02:04:23.250Z,101218.44
2023-04-27T02:06:53.489Z,101224.31
2023-04-27T02:09:26.130Z,101221.09
2023-04-27T02:11:56.201Z,101222.06
2023-04-27T02:14:26.279Z,101227.75
2023-04-27T02:16:56.391Z,101237.06
2023-04-27T02:19:26.464Z,101229.28
2023-04-27T02:21:56.591Z,101239.44
2023-04-27T02:24:29.282Z,101238.78
2023-04-27T02:26:59.468Z,101234.03
2023-04-27T02:29:33.419Z,101230.44
2023-04-27T02:32:03.998Z,101240.88
2023-04-27T02:34:35.425Z,101243.66
2023-04-27T02:37:06.322Z,101251.88
2023-04-27T02:39:39.008Z,101241.66
2023-04-27T02:42:09.708Z,101245.00
2023-04-27T02:44:40.702Z,101246.13
2023-04-27T02:47:10.926Z,101249.03
2023-04-27T02:49:41.191Z,101249.59
2023-04-27T02:52:11.367Z,101244.44
2023-04-27T02:54:44.106Z,101252.91
2023-04-27T02:57:14.183Z,101242.75
2023-04-27T02:59:44.355Z,101252.09
2023-04-27T03:02:14.509Z,101255.69
2023-04-27T03:04:44.722Z,101251.53
2023-04-27T03:07:15.082Z,101258.34
2023-04-27T03:09:47.871Z,101249.31
2023-04-27T03:12:17.901Z,101256.00
2023-04-27T03:14:47.994Z,101256.53
2023-04-27T03:17:18.198Z,101260.16
2023-04-27T03:19:51.942Z,101259.44
2023-04-27T03:22:22.022Z,101257.91
2023-04-27T03:24:54.977Z,101256.94
2023-04-27T04:05:47.336Z,101290.66
2023-04-27T04:08:17.940Z,101292.59
2023-04-27T04:10:48.018Z,101294.84
2023-04-27T04:13:18.314Z,101298.59
2023-04-27T04:15:48.989Z,101300.97
2023-04-27T04:18:19.094Z,101310.19
2023-04-27T04:20:52.214Z,101312.25
2023-04-27T04:23:22.449Z,101306.81
2023-04-27T04:25:52.889Z,101322.44
2023-04-27T04:28:24.032Z,101316.19
2023-04-27T04:30:55.010Z,101315.53
2023-04-27T04:33:26.475Z,101318.34
2023-04-27T04:35:59.207Z,101316.66
2023-04-27T04:38:29.443Z,101313.44
2023-04-27T04:40:59.543Z,101321.69
2023-04-27T04:43:33.009Z,101323.94
2023-04-27T04:46:06.621Z,101325.59
2023-04-27T04:48:37.822Z,101320.88
2023-04-27T04:51:10.842Z,101320.44
2023-04-27T04:53:40.997Z,101320.84
2023-04-27T04:56:15.080Z,101323.09
2023-04-27T04:58:45.402Z,101327.41
2023-04-27T05:01:15.598Z,101335.63
2023-04-27T05:03:45.847Z,101341.13
2023-04-27T05:06:18.622Z,101343.50
2023-04-27T05:08:48.741Z,101337.38
2023-04-27T05:11:18.862Z,101344.50
2023-04-27T05:13:48.844Z,101338.41
2023-04-27T05:16:18.895Z,101343.88
2023-04-27T05:18:48.972Z,101339.13
2023-04-27T05:21:22.362Z,101336.50
2023-04-27T05:23:52.584Z,101340.13
2023-04-27T05:26:22.669Z,101345.00
2023-04-27T05:28:52.850Z,101341.38
2023-04-27T05:31:23.151Z,101345.00
2023-04-27T05:33:53.271Z,101345.28
2023-04-27T05:36:27.240Z,101349.88
2023-04-27T05:38:59.822Z,101345.56
2023-04-27T05:41:29.883Z,101346.84
2023-04-27T05:44:00.020Z,101350.44
2023-04-27T05:46:30.212Z,101353.25
2023-04-27T05:49:00.307Z,101347.25
2023-04-27T05:51:36.259Z,101354.94
2023-04-27T05:54:06.501Z,101346.41
2023-04-27T05:56:38.030Z,101351.97
2023-04-27T05:59:08.259Z,101340.34
2023-04-27T06:01:38.392Z,101355.09
2023-04-27T06:04:08.558Z,101352.50
2023-04-27T06:06:41.356Z,101352.38
2023-04-27T06:09:11.605Z,101352.44
2023-04-27T06:11:41.864Z,101359.00
2023-04-27T06:14:12.079Z,101363.13
2023-04-27T06:16:45.205Z,101363.06
2023-04-27T06:19:15.685Z,101368.84
2023-04-27T06:21:48.540Z,101368.44
2023-04-27T06:24:19.399Z,101364.16
2023-04-27T06:26:49.533Z,101374.50
2023-04-27T06:29:19.711Z,101366.31
2023-04-27T06:31:49.948Z,101376.56
2023-04-27T06:34:20.039Z,101369.38
2023-04-27T06:36:52.753Z,101371.34
2023-04-27T06:39:22.860Z,101366.03
2023-04-27T06:41:54.057Z,101374.53
2023-04-27T06:44:24.114Z,101373.41
2023-04-27T06:46:54.196Z,101373.72
2023-04-27T06:49:24.415Z,101375.19
2023-04-27T06:52:00.376Z,101379.41
2023-04-27T06:54:30.643Z,101380.19
2023-04-27T06:57:00.763Z,101386.38
2023-04-27T06:59:30.766Z,101380.63
2023-04-27T07:02:01.081Z,101374.00
2023-04-27T07:04:31.312Z,101374.34
2023-04-27T07:07:04.056Z,101384.16
2023-04-27T07:09:34.362Z,101383.63
2023-04-27T07:12:04.665Z,101384.28
2023-04-27T07:14:34.701Z,101392.53
2023-04-27T07:17:04.907Z,101385.81
2023-04-27T07:19:35.092Z,101384.59
2023-04-27T07:22:07.776Z,101387.63
2023-04-27T07:24:37.820Z,101385.03
2023-04-27T07:27:08.362Z,101380.22
2023-04-27T07:29:38.443Z,101380.53
2023-04-27T07:32:09.687Z,101382.53
2023-04-27T07:34:52.731Z,101378.34
2023-04-27T07:37:28.936Z,101375.63
2023-04-27T07:39:59.726Z,101384.13
2023-04-27T07:42:29.819Z,101390.81
2023-04-27T07:45:00.180Z,101378.34
2023-04-27T07:47:30.200Z,101382.75
2023-04-27T07:50:00.705Z,101394.06
2023-04-27T07:52:33.421Z,101389.69
2023-04-27T07:55:04.058Z,101392.63
2023-04-27T07:57:34.257Z,101397.22
2023-04-27T08:00:06.785Z,101396.19
2023-04-27T08:02:43.143Z,101402.69
2023-04-27T08:05:14.179Z,101393.38
2023-04-27T08:07:47.799Z,101391.50
2023-04-27T08:10:18.740Z,101385.66
2023-04-27T08:12:48.804Z,101388.13
2023-04-27T08:15:19.105Z,101391.28
2023-04-27T08:17:49.379Z,101397.75
2023-04-27T08:20:20.980Z,101392.56
2023-04-27T08:22:54.163Z,101387.81
2023-04-27T08:25:24.528Z,101392.81
2023-04-27T08:27:55.598Z,101402.00
2023-04-27T08:30:26.118Z,101405.28
2023-04-27T08:32:56.885Z,101407.66
2023-04-27T08:35:27.049Z,101400.34
2023-04-27T08:37:59.675Z,101403.50
2023-04-27T08:40:29.931Z,101401.25
2023-04-27T08:43:01.301Z,101409.34
2023-04-27T08:45:31.772Z,101401.13
2023-04-27T08:48:01.868Z,101402.78
2023-04-27T08:50:32.690Z,101401.91
2023-04-27T08:53:05.424Z,101399.25
2023-04-27T08:55:35.885Z,101405.84
2023-04-27T08:58:06.425Z,101410.41
2023-04-27T09:00:42.476Z,101408.69
2023-04-27T09:03:25.072Z,101407.91
2023-04-27T09:06:03.715Z,101407.09
2023-04-27T09:08:48.035Z,101415.91
2023-04-27T09:11:19.611Z,101411.41
2023-04-27T09:13:50.242Z,101414.91
2023-04-27T09:16:30.037Z,101415.06
2023-04-27T09:19:02.861Z,101404.22
2023-04-27T09:21:44.156Z,101399.28
2023-04-27T09:24:20.534Z,101402.13
2023-04-27T09:26:55.829Z,101401.34
2023-04-27T09:29:35.891Z,101405.03
2023-04-27T09:32:17.115Z,101393.69
2023-04-27T09:34:51.729Z,101397.03
2023-04-27T09:37:27.580Z,101398.34
2023-04-27T09:40:09.841Z,101405.06
2023-04-27T09:42:44.715Z,101398.38
2023-04-27T09:45:15.530Z,101400.56
2023-04-27T09:47:46.705Z,101402.56
2023-04-27T09:50:21.905Z,101394.63
2023-04-27T09:52:55.754Z,101394.66
2023-04-27T09:55:36.509Z,101390.97
2023-04-27T09:58:27.135Z,101389.09
2023-04-27T10:01:07.851Z,101393.03
2023-04-27T10:03:50.728Z,101388.75
2023-04-27T10:06:57.653Z,101387.38
2023-04-27T10:09:31.971Z,101383.63
2023-04-27T10:12:23.876Z,101381.59
2023-04-27T10:14:55.773Z,101378.59
2023-04-27T10:17:33.133Z,101384.78
2023-04-27T10:20:05.081Z,101376.47
2023-04-27T10:22:43.236Z,101368.38
2023-04-27T10:25:21.849Z,101374.94
2023-04-27T10:27:56.838Z,101370.31
2023-04-27T10:30:30.727Z,101376.19
2023-04-27T10:33:02.572Z,101380.84
2023-04-27T10:35:39.677Z,101376.59
2023-04-27T10:38:11.315Z,101377.63
2023-04-27T10:40:41.782Z,101374.84
2023-04-27T10:43:18.442Z,101366.72
2023-04-27T10:45:49.073Z,101371.88
2023-04-27T10:48:19.331Z,101369.03
2023-04-27T10:50:49.695Z,101358.19
2023-04-27T10:53:19.821Z,101366.16
2023-04-27T10:55:49.857Z,101360.50
2023-04-27T10:58:34.604Z,101360.63
2023-04-27T11:01:15.322Z,101365.81
2023-04-27T11:03:49.123Z,101362.38
2023-04-27T11:06:20.383Z,101361.28
2023-04-27T11:08:50.733Z,101370.19
2023-04-27T11:11:21.028Z,101368.59
2023-04-27T11:13:56.937Z,101361.00
2023-04-27T11:16:27.217Z,101365.91
2023-04-27T11:19:00.932Z,101359.38
2023-04-27T11:21:32.477Z,101364.59
2023-04-27T11:24:07.182Z,101350.56
2023-04-27T11:26:37.406Z,101355.88
2023-04-27T11:29:14.458Z,101362.38
2023-04-27T11:31:48.795Z,101373.97
2023-04-27T11:34:19.818Z,101372.22
2023-04-27T11:37:16.760Z,101378.97
2023-04-27T11:39:48.646Z,101375.31
2023-04-27T11:42:21.348Z,101378.94
2023-04-27T11:45:00.024Z,101386.69
2023-04-27T11:47:35.450Z,101389.03
2023-04-27T11:50:08.125Z,101386.50
2023-04-27T11:52:40.259Z,101385.03
2023-04-27T11:55:16.402Z,101393.94
2023-04-27T11:57:46.695Z,101397.34
2023-04-27T12:00:20.839Z,101398.69
2023-04-27T12:02:51.179Z,101397.34
2023-04-27T12:05:23.687Z,101404.47
2023-04-27T12:07:58.417Z,101407.38
2023-04-27T12:10:28.660Z,101406.00
2023-04-27T12:12:58.913Z,101399.44
2023-04-27T12:15:34.207Z,101402.59
2023-04-27T12:18:04.429Z,101397.47
2023-04-27T12:20:34.524Z,101402.03
2023-04-27T12:23:04.709Z,101409.00
2023-04-27T12:25:34.833Z,101406.66
2023-04-27T12:28:04.945Z,101411.47
2023-04-27T12:30:38.005Z,101409.81
2023-04-27T12:33:11.355Z,101397.44
2023-04-27T12:35:41.522Z,101397.84
2023-04-27T12:38:11.705Z,101401.34
2023-04-27T12:40:41.886Z,101394.09
2023-04-27T12:43:12.975Z,101399.44
2023-04-27T12:45:45.920Z,101407.88
2023-04-27T12:48:17.558Z,101405.00
2023-04-27T12:50:48.013Z,101407.72
2023-04-27T12:53:18.115Z,101402.16
2023-04-27T12:55:49.182Z,101409.59
2023-04-27T12:58:19.575Z,101415.22
2023-04-27T13:00:52.344Z,101406.28
2023-04-27T13:03:22.531Z,101406.88
2023-04-27T13:05:52.964Z,101398.00
2023-04-27T13:08:23.290Z,101403.50
2023-04-27T13:10:53.444Z,101408.34
2023-04-27T13:13:23.640Z,101397.34
2023-04-27T13:15:56.589Z,101392.94
2023-04-27T13:18:26.876Z,101395.44
2023-04-27T13:20:58.291Z,101404.59
2023-04-27T13:23:28.786Z,101405.94
2023-04-27T13:25:59.147Z,101399.84
2023-04-27T13:28:29.302Z,101401.53
2023-04-27T13:31:02.072Z,101403.63
2023-04-27T13:33:32.293Z,101406.81
2023-04-27T13:36:04.053Z,101395.38
2023-04-27T13:38:34.142Z,101403.78
2023-04-27T13:41:04.407Z,101395.47
2023-04-27T13:43:34.772Z,101397.13
2023-04-27T13:46:07.827Z,101394.25
2023-04-27T13:48:37.945Z,101389.78
2023-04-27T13:51:08.192Z,101392.00
2023-04-27T13:53:38.573Z,101397.03
2023-04-27T13:56:09.431Z,101394.78
2023-04-27T13:58:41.390Z,101390.78
2023-04-27T14:01:14.122Z,101391.09
2023-04-27T14:03:44.621Z,101394.41
2023-04-27T14:06:15.235Z,101398.31
2023-04-27T14:08:45.350Z,101401.72
2023-04-27T14:11:15.953Z,101405.69
2023-04-27T14:13:46.511Z,101404.50
2023-04-27T14:16:19.306Z,101403.84
2023-04-27T14:18:49.523Z,101407.09
2023-04-27T14:21:34.528Z,101399.53
2023-04-27T14:24:04.680Z,101399.69
2023-04-27T14:26:34.828Z,101412.91
2023-04-27T14:29:05.000Z,101408.44
2023-04-27T14:31:38.076Z,101400.31
2023-04-27T14:34:08.564Z,101397.19
2023-04-27T14:36:39.363Z,101400.41
2023-04-27T14:39:09.901Z,101405.44
2023-04-27T14:41:40.191Z,101399.78
2023-04-27T14:44:11.376Z,101402.63
2023-04-27T14:46:44.235Z,101395.47
2023-04-27T14:49:14.842Z,101407.44
2023-04-27T14:51:45.346Z,101404.56
2023-04-27T14:54:18.453Z,101403.59
2023-04-27T14:56:49.360Z,101407.84
2023-04-27T14:59:19.589Z,101403.34
2023-04-27T15:01:52.515Z,101402.16
2023-04-27T15:04:23.219Z,101399.16
2023-04-27T15:06:53.492Z,101398.00
2023-04-27T15:09:23.574Z,101394.06
2023-04-27T15:11:53.608Z,101389.72
2023-04-27T15:14:23.748Z,101386.75
2023-04-27T15:16:56.814Z,101388.69
2023-04-27T15:19:26.982Z,101385.63
2023-04-27T15:21:57.148Z,101383.16
2023-04-27T15:24:27.262Z,101399.75
2023-04-27T15:26:57.421Z,101390.47
2023-04-27T15:29:31.265Z,101387.81
2023-04-27T15:32:04.179Z,101382.69
2023-04-27T15:34:34.284Z,101381.69
2023-04-27T15:37:04.383Z,101386.16
2023-04-27T15:39:34.516Z,101375.53
2023-04-27T15:42:04.720Z,101374.66
2023-04-27T15:44:34.967Z,101381.63
2023-04-27T15:47:08.330Z,101382.31
2023-04-27T15:49:53.675Z,101380.97
2023-04-27T15:52:34.564Z,101377.13
2023-04-27T15:55:04.698Z,101378.50
2023-04-27T15:57:34.787Z,101372.19
2023-04-27T16:00:07.076Z,101375.03
2023-04-27T16:02:43.962Z,101371.72
2023-04-27T16:05:17.295Z,101358.06
2023-04-27T16:07:48.454Z,101370.41
2023-04-27T16:10:21.014Z,101367.22
2023-04-27T16:12:51.248Z,101361.41
2023-04-27T16:15:22.853Z,101367.25
2023-04-27T16:17:55.786Z,101356.00
2023-04-27T16:20:29.045Z,101353.81
2023-04-27T16:22:59.156Z,101354.31
2023-04-27T16:25:29.600Z,101353.66
2023-04-27T16:28:01.688Z,101353.66
2023-04-27T16:30:31.787Z,101347.44
2023-04-27T16:33:04.629Z,101345.94
2023-04-27T16:35:34.870Z,101348.91
2023-04-27T16:38:06.174Z,101349.25
2023-04-27T16:40:36.876Z,101345.16
2023-04-27T16:43:07.288Z,101340.66
2023-04-27T16:45:38.737Z,101351.84
2023-04-27T16:48:12.594Z,101348.84
2023-04-27T16:50:43.055Z,101336.00
2023-04-27T16:53:21.296Z,101346.16
2023-04-27T16:55:51.533Z,101344.31
2023-04-27T16:58:22.361Z,101346.00
2023-04-27T17:00:52.828Z,101346.84
2023-04-27T17:03:26.236Z,101345.50
2023-04-27T17:05:56.666Z,101348.50
2023-04-27T17:08:26.968Z,101349.84
2023-04-27T17:10:57.156Z,101349.91
2023-04-27T17:13:28.103Z,101339.22
2023-04-27T17:16:01.102Z,101344.06
2023-04-27T17:18:34.272Z,101337.06
2023-04-27T17:21:04.437Z,101345.72
2023-04-27T17:23:34.764Z,101338.06
2023-04-27T17:26:07.862Z,101338.72
2023-04-27T17:28:38.206Z,101347.88
2023-04-27T17:31:09.647Z,101348.50
2023-04-27T17:33:43.695Z,101353.84
2023-04-27T17:36:15.162Z,101353.66
2023-04-27T17:38:46.605Z,101355.66
2023-04-27T17:41:16.650Z,101347.34
2023-04-27T17:43:46.965Z,101350.34
2023-04-27T17:46:17.287Z,101346.34
2023-04-27T17:48:49.995Z,101356.50
2023-04-27T17:51:20.390Z,101344.00
2023-04-27T17:53:50.609Z,101339.28
2023-04-27T17:56:20.917Z,101340.41
2023-04-27T17:58:51.222Z,101345.16
2023-04-27T18:01:21.783Z,101341.09
2023-04-27T18:03:54.888Z,101349.00
2023-04-27T18:06:25.129Z,101347.25
2023-04-27T18:08:55.146Z,101351.91
2023-04-27T18:11:25.294Z,101356.19
2023-04-27T18:13:58.036Z,101364.28
2023-04-27T18:16:28.371Z,101374.88
2023-04-27T18:19:01.121Z,101372.50
2023-04-27T18:21:31.900Z,101373.13
2023-04-27T18:24:02.048Z,101374.88
2023-04-27T18:26:32.963Z,101380.13
2023-04-27T18:29:03.264Z,101375.75
2023-04-27T18:31:33.618Z,101382.63
2023-04-27T18:34:06.654Z,101390.09
2023-04-27T18:36:36.821Z,101388.19
2023-04-27T18:39:07.081Z,101387.97
2023-04-27T18:41:37.189Z,101391.69
2023-04-27T18:44:08.096Z,101394.22
2023-04-27T18:46:39.025Z,101401.66
2023-04-27T18:49:12.426Z,101400.44
2023-04-27T18:51:42.941Z,101407.72
2023-04-27T18:54:13.203Z,101402.72
2023-04-27T18:56:43.565Z,101408.59
2023-04-27T18:59:14.027Z,101408.78
2023-04-27T19:01:44.568Z,101412.00
2023-04-27T19:04:17.505Z,101410.34
2023-04-27T19:06:47.963Z,101417.31
2023-04-27T19:09:18.358Z,101414.97
2023-04-27T19:11:56.122Z,101409.94
2023-04-27T19:14:32.442Z,101413.72
2023-04-27T19:17:08.505Z,101407.03
2023-04-27T19:19:53.093Z,101409.59
2023-04-27T19:22:23.224Z,101402.91
2023-04-27T19:24:53.404Z,101408.81
2023-04-27T19:27:23.476Z,101409.78
2023-04-27T19:29:55.153Z,101419.16
2023-04-27T19:32:27.340Z,101415.28
2023-04-27T19:35:01.378Z,101419.88
2023-04-27T19:37:31.678Z,101419.19
2023-04-27T19:40:01.813Z,101415.16
2023-04-27T19:42:32.208Z,101416.44
2023-04-27T19:45:04.025Z,101408.31
2023-04-27T19:47:34.248Z,101403.19
2023-04-27T19:50:07.708Z,101409.06
2023-04-27T19:52:37.925Z,101406.97
2023-04-27T19:55:08.700Z,101407.81
2023-04-27T19:57:39.280Z,101412.97
2023-04-27T20:00:12.361Z,101414.66
2023-04-27T20:02:45.324Z,101420.91
2023-04-27T20:05:18.238Z,101416.84
2023-04-27T20:07:50.147Z,101408.66
2023-04-27T20:10:22.836Z,101405.72
2023-04-27T20:12:57.145Z,101404.88
2023-04-27T20:15:27.889Z,101408.38
2023-04-27T20:17:58.235Z,101398.88
2023-04-27T20:20:35.809Z,101395.53
2023-04-27T20:23:06.262Z,101394.13
2023-04-27T20:25:37.847Z,101395.25
2023-04-27T20:28:08.189Z,101404.31
2023-04-27T20:30:38.380Z,101403.03
2023-04-27T20:33:08.866Z,101403.41
2023-04-27T20:35:42.692Z,101395.59
2023-04-27T20:38:13.351Z,101410.50
2023-04-27T20:40:43.543Z,101402.41
2023-04-27T20:43:13.775Z,101402.41
2023-04-27T20:45:44.160Z,101401.16
2023-04-27T20:48:14.417Z,101402.00
2023-04-27T20:50:47.102Z,101396.69
2023-04-27T20:53:17.528Z,101401.28
2023-04-27T20:55:47.806Z,101405.47
2023-04-27T20:58:19.647Z,101398.41
2023-04-27T21:00:52.811Z,101393.25
2023-04-27T21:03:23.133Z,101395.19
2023-04-27T21:05:58.944Z,101389.63
2023-04-27T21:08:29.244Z,101389.50
2023-04-27T21:10:59.447Z,101390.34
2023-04-27T21:13:29.600Z,101383.25
2023-04-27T21:15:59.652Z,101384.22
2023-04-27T21:18:30.722Z,101380.03
2023-04-27T21:21:03.804Z,101382.09
2023-04-27T21:23:40.751Z,101382.25
2023-04-27T21:26:11.288Z,101376.38
2023-04-27T21:28:42.092Z,101377.34
2023-04-27T21:31:12.706Z,101377.50
2023-04-27T21:33:42.968Z,101383.88
2023-04-27T21:36:15.662Z,101376.59
2023-04-27T21:38:48.096Z,101381.97
2023-04-27T21:41:18.406Z,101383.34
2023-04-27T21:43:48.755Z,101381.81
2023-04-27T21:46:20.913Z,101383.34
2023-04-27T21:48:53.804Z,101385.88
2023-04-27T21:51:29.536Z,101380.44
2023-04-27T21:53:59.756Z,101369.03
2023-04-27T21:56:29.837Z,101377.50
2023-04-27T21:59:00.207Z,101381.50
2023-04-27T22:01:31.053Z,101384.41
2023-04-27T22:04:02.317Z,101387.91
2023-04-27T22:06:35.983Z,101384.06
2023-04-27T22:09:08.163Z,101371.00
2023-04-27T22:11:38.391Z,101374.25
2023-04-27T22:14:08.593Z,101378.69
2023-04-27T22:16:38.842Z,101375.06
2023-04-27T22:19:09.385Z,101372.78
2023-04-27T22:21:42.034Z,101377.25
2023-04-27T22:24:12.141Z,101374.16
2023-04-27T22:26:42.181Z,101386.94
2023-04-27T22:29:12.369Z,101378.44
2023-04-27T22:31:43.072Z,101383.38
2023-04-27T22:34:15.097Z,101387.94
2023-04-27T22:36:48.182Z,101387.19
2023-04-27T22:39:18.381Z,101383.88
2023-04-27T22:41:48.794Z,101389.66
2023-04-27T22:44:18.874Z,101390.75
2023-04-27T22:46:48.957Z,101395.53
2023-04-27T22:49:19.361Z,101393.22
2023-04-27T22:51:54.149Z,101387.66
2023-04-27T22:54:24.601Z,101393.66
2023-04-27T22:56:54.694Z,101388.25
2023-04-27T22:59:25.558Z,101387.41
2023-04-27T23:01:55.702Z,101381.16
2023-04-27T23:04:26.710Z,101377.94
2023-04-27T23:06:59.702Z,101376.00
2023-04-27T23:09:29.902Z,101373.00
2023-04-27T23:12:01.216Z,101369.75
2023-04-27T23:14:46.451Z,101365.56
2023-04-27T23:17:17.185Z,101373.88
2023-04-27T23:19:47.241Z,101372.72
2023-04-27T23:22:19.909Z,101373.47
2023-04-27T23:24:50.172Z,101372.31
2023-04-27T23:27:20.511Z,101370.78
2023-04-27T23:29:50.589Z,101362.97
2023-04-27T23:32:20.713Z,101358.75
2023-04-27T23:34:51.032Z,101360.09
2023-04-27T23:37:25.073Z,101371.63
2023-04-27T23:39:55.255Z,101365.91
2023-04-27T23:42:25.346Z,101360.75
2023-04-27T23:44:55.998Z,101360.41
2023-04-27T23:47:26.260Z,101355.63
2023-04-27T23:49:56.534Z,101350.59
2023-04-27T23:52:29.455Z,101345.78
2023-04-27T23:55:00.527Z,101343.78
2023-04-27T23:57:30.549Z,101342.25
